sensor_id;sensor_type;location;lat;lon;timestamp;P1;durP1;ratioP1;P2;durP2;ratioP2
18875;SDS011;9570;50.854;13.778;2022-10-16T00:00:41;11.63;;;5.30;;
18875;SDS011;9570;50.854;13.778;2022-10-16T00:03:07;7.83;;;4.80;;
18875;SDS011;9570;50.854;13.778;2022-10-16T00:05:37;8.93;;;5.40;;
18875;SDS011;9570;50.854;13.778;2022-10-16T00:08:05;9.00;;;4.43;;
18875;SDS011;9570;50.854;13.778;2022-10-16T00:10:30;6.53;;;4.10;;
18875;SDS011;9570;50.854;13.778;2022-10-16T00:12:56;7.27;;;4.40;;
18875;SDS011;9570;50.854;13.778;2022-10-16T00:15:21;5.90;;;4.33;;
18875;SDS011;9570;50.854;13.778;2022-10-16T00:17:47;14.53;;;4.70;;
18875;SDS011;9570;50.854;13.778;2022-10-16T00:20:12;8.20;;;4.40;;
18875;SDS011;9570;50.854;13.778;2022-10-16T00:22:38;7.90;;;4.67;;
18875;SDS011;9570;50.854;13.778;2022-10-16T00:25:04;6.33;;;4.17;;
18875;SDS011;9570;50.854;13.778;2022-10-16T00:27:30;10.20;;;4.17;;
18875;SDS011;9570;50.854;13.778;2022-10-16T00:29:56;10.53;;;4.63;;
18875;SDS011;9570;50.854;13.778;2022-10-16T00:32:21;5.67;;;4.30;;
18875;SDS011;9570;50.854;13.778;2022-10-16T00:34:47;11.03;;;4.80;;
18875;SDS011;9570;50.854;13.778;2022-10-16T00:37:12;8.37;;;4.80;;
18875;SDS011;9570;50.854;13.778;2022-10-16T00:39:38;8.13;;;4.90;;
18875;SDS011;9570;50.854;13.778;2022-10-16T00:42:04;5.97;;;4.43;;
18875;SDS011;9570;50.854;13.778;2022-10-16T00:47:27;9.33;;;4.93;;
18875;SDS011;9570;50.854;13.778;2022-10-16T00:49:58;8.40;;;4.90;;
18875;SDS011;9570;50.854;13.778;2022-10-16T00:52:31;8.23;;;5.07;;
18875;SDS011;9570;50.854;13.778;2022-10-16T00:54:57;6.47;;;5.87;;
18875;SDS011;9570;50.854;13.778;2022-10-16T00:57:23;6.87;;;5.00;;
18875;SDS011;9570;50.854;13.778;2022-10-16T00:59:49;6.67;;;5.40;;
18875;SDS011;9570;50.854;13.778;2022-10-16T01:02:16;5.67;;;4.80;;
18875;SDS011;9570;50.854;13.778;2022-10-16T01:04:51;12.57;;;5.27;;
18875;SDS011;9570;50.854;13.778;2022-10-16T01:10:39;11.53;;;6.10;;
18875;SDS011;9570;50.854;13.778;2022-10-16T01:13:17;12.97;;;6.87;;
18875;SDS011;9570;50.854;13.778;2022-10-16T01:15:59;12.40;;;7.47;;
18875;SDS011;9570;50.854;13.778;2022-10-16T01:18:37;9.17;;;7.57;;
18875;SDS011;9570;50.854;13.778;2022-10-16T01:21:16;13.33;;;7.37;;
18875;SDS011;9570;50.854;13.778;2022-10-16T01:26:18;9.97;;;7.70;;
18875;SDS011;9570;50.854;13.778;2022-10-16T01:29:17;11.03;;;8.50;;
18875;SDS011;9570;50.854;13.778;2022-10-16T01:31:50;11.27;;;8.50;;
18875;SDS011;9570;50.854;13.778;2022-10-16T01:34:25;14.57;;;9.43;;
18875;SDS011;9570;50.854;13.778;2022-10-16T01:37:01;12.63;;;9.90;;
18875;SDS011;9570;50.854;13.778;2022-10-16T01:39:31;12.00;;;10.13;;
18875;SDS011;9570;50.854;13.778;2022-10-16T01:42:01;14.97;;;9.47;;
18875;SDS011;9570;50.854;13.778;2022-10-16T01:44:32;9.80;;;8.90;;
18875;SDS011;9570;50.854;13.778;2022-10-16T01:47:01;9.20;;;8.30;;
18875;SDS011;9570;50.854;13.778;2022-10-16T01:49:27;11.57;;;9.80;;
18875;SDS011;9570;50.854;13.778;2022-10-16T01:51:58;11.70;;;9.20;;
18875;SDS011;9570;50.854;13.778;2022-10-16T01:54:27;12.73;;;9.60;;
18875;SDS011;9570;50.854;13.778;2022-10-16T01:56:55;13.70;;;10.13;;
18875;SDS011;9570;50.854;13.778;2022-10-16T01:59:23;17.07;;;10.00;;
18875;SDS011;9570;50.854;13.778;2022-10-16T02:01:58;15.37;;;10.33;;
18875;SDS011;9570;50.854;13.778;2022-10-16T02:04:33;11.77;;;9.67;;
18875;SDS011;9570;50.854;13.778;2022-10-16T02:07:02;15.67;;;9.50;;
18875;SDS011;9570;50.854;13.778;2022-10-16T02:09:29;13.60;;;9.77;;
18875;SDS011;9570;50.854;13.778;2022-10-16T02:11:57;10.90;;;9.20;;
18875;SDS011;9570;50.854;13.778;2022-10-16T02:14:27;11.60;;;8.87;;
18875;SDS011;9570;50.854;13.778;2022-10-16T02:16:53;11.03;;;9.93;;
18875;SDS011;9570;50.854;13.778;2022-10-16T02:19:19;11.80;;;9.37;;
18875;SDS011;9570;50.854;13.778;2022-10-16T02:21:50;15.73;;;9.50;;
18875;SDS011;9570;50.854;13.778;2022-10-16T02:24:48;13.03;;;9.50;;
18875;SDS011;9570;50.854;13.778;2022-10-16T02:27:29;10.70;;;9.60;;
18875;SDS011;9570;50.854;13.778;2022-10-16T02:30:13;12.10;;;9.00;;
18875;SDS011;9570;50.854;13.778;2022-10-16T02:32:45;13.57;;;9.60;;
18875;SDS011;9570;50.854;13.778;2022-10-16T02:35:15;11.97;;;8.70;;
18875;SDS011;9570;50.854;13.778;2022-10-16T02:37:42;13.17;;;9.40;;
18875;SDS011;9570;50.854;13.778;2022-10-16T02:40:09;10.70;;;8.67;;
18875;SDS011;9570;50.854;13.778;2022-10-16T02:42:37;10.63;;;8.50;;
18875;SDS011;9570;50.854;13.778;2022-10-16T02:45:04;10.13;;;8.33;;
18875;SDS011;9570;50.854;13.778;2022-10-16T02:47:34;10.57;;;9.47;;
18875;SDS011;9570;50.854;13.778;2022-10-16T02:49:59;10.27;;;9.10;;
18875;SDS011;9570;50.854;13.778;2022-10-16T02:52:25;10.47;;;8.93;;
18875;SDS011;9570;50.854;13.778;2022-10-16T02:54:51;9.90;;;8.90;;
18875;SDS011;9570;50.854;13.778;2022-10-16T02:57:17;10.57;;;8.97;;
18875;SDS011;9570;50.854;13.778;2022-10-16T02:59:43;10.47;;;8.97;;
18875;SDS011;9570;50.854;13.778;2022-10-16T03:02:09;9.93;;;8.40;;
18875;SDS011;9570;50.854;13.778;2022-10-16T03:04:35;9.73;;;8.73;;
18875;SDS011;9570;50.854;13.778;2022-10-16T03:07:00;10.10;;;7.87;;
18875;SDS011;9570;50.854;13.778;2022-10-16T03:09:26;8.57;;;7.70;;
18875;SDS011;9570;50.854;13.778;2022-10-16T03:11:51;9.00;;;8.10;;
18875;SDS011;9570;50.854;13.778;2022-10-16T03:14:17;11.00;;;7.97;;
18875;SDS011;9570;50.854;13.778;2022-10-16T03:16:42;10.13;;;8.33;;
18875;SDS011;9570;50.854;13.778;2022-10-16T03:19:08;9.57;;;8.53;;
18875;SDS011;9570;50.854;13.778;2022-10-16T03:21:34;9.83;;;8.00;;
18875;SDS011;9570;50.854;13.778;2022-10-16T03:23:59;8.47;;;7.20;;
18875;SDS011;9570;50.854;13.778;2022-10-16T03:26:25;8.40;;;6.93;;
18875;SDS011;9570;50.854;13.778;2022-10-16T03:28:50;9.93;;;6.93;;
18875;SDS011;9570;50.854;13.778;2022-10-16T03:31:16;6.97;;;6.27;;
18875;SDS011;9570;50.854;13.778;2022-10-16T03:33:41;10.97;;;7.33;;
18875;SDS011;9570;50.854;13.778;2022-10-16T03:36:07;6.97;;;6.13;;
18875;SDS011;9570;50.854;13.778;2022-10-16T03:38:32;8.80;;;6.23;;
18875;SDS011;9570;50.854;13.778;2022-10-16T03:40:58;9.00;;;6.57;;
18875;SDS011;9570;50.854;13.778;2022-10-16T03:43:23;8.53;;;6.50;;
18875;SDS011;9570;50.854;13.778;2022-10-16T03:45:52;9.00;;;6.63;;
18875;SDS011;9570;50.854;13.778;2022-10-16T03:48:18;10.63;;;6.60;;
18875;SDS011;9570;50.854;13.778;2022-10-16T03:50:44;8.77;;;6.90;;
18875;SDS011;9570;50.854;13.778;2022-10-16T03:53:10;9.40;;;6.40;;
18875;SDS011;9570;50.854;13.778;2022-10-16T03:55:36;7.30;;;5.97;;
18875;SDS011;9570;50.854;13.778;2022-10-16T03:58:01;10.40;;;6.57;;
18875;SDS011;9570;50.854;13.778;2022-10-16T04:00:27;8.70;;;6.00;;
18875;SDS011;9570;50.854;13.778;2022-10-16T04:02:53;9.10;;;5.60;;
18875;SDS011;9570;50.854;13.778;2022-10-16T04:05:19;10.83;;;6.73;;
18875;SDS011;9570;50.854;13.778;2022-10-16T04:07:44;7.70;;;6.57;;
18875;SDS011;9570;50.854;13.778;2022-10-16T04:10:10;9.60;;;6.23;;
18875;SDS011;9570;50.854;13.778;2022-10-16T04:12:36;7.50;;;6.40;;
18875;SDS011;9570;50.854;13.778;2022-10-16T04:15:01;7.33;;;6.20;;
18875;SDS011;9570;50.854;13.778;2022-10-16T04:17:27;9.10;;;5.60;;
18875;SDS011;9570;50.854;13.778;2022-10-16T04:19:53;12.87;;;6.00;;
18875;SDS011;9570;50.854;13.778;2022-10-16T04:22:18;8.23;;;6.17;;
18875;SDS011;9570;50.854;13.778;2022-10-16T04:24:44;7.53;;;5.77;;
18875;SDS011;9570;50.854;13.778;2022-10-16T04:27:09;7.27;;;6.57;;
18875;SDS011;9570;50.854;13.778;2022-10-16T04:29:35;10.10;;;6.33;;
18875;SDS011;9570;50.854;13.778;2022-10-16T04:32:00;7.40;;;6.23;;
18875;SDS011;9570;50.854;13.778;2022-10-16T04:34:26;11.27;;;6.33;;
18875;SDS011;9570;50.854;13.778;2022-10-16T04:36:51;7.10;;;6.40;;
18875;SDS011;9570;50.854;13.778;2022-10-16T04:39:17;9.37;;;6.30;;
18875;SDS011;9570;50.854;13.778;2022-10-16T04:41:42;9.90;;;6.30;;
18875;SDS011;9570;50.854;13.778;2022-10-16T04:44:08;11.50;;;7.30;;
18875;SDS011;9570;50.854;13.778;2022-10-16T04:46:33;10.97;;;7.43;;
18875;SDS011;9570;50.854;13.778;2022-10-16T04:48:59;9.23;;;6.73;;
18875;SDS011;9570;50.854;13.778;2022-10-16T04:51:25;11.93;;;6.77;;
18875;SDS011;9570;50.854;13.778;2022-10-16T04:53:51;8.27;;;6.83;;
18875;SDS011;9570;50.854;13.778;2022-10-16T04:56:17;8.73;;;7.23;;
18875;SDS011;9570;50.854;13.778;2022-10-16T04:58:43;8.43;;;7.37;;
18875;SDS011;9570;50.854;13.778;2022-10-16T05:01:08;13.07;;;7.73;;
18875;SDS011;9570;50.854;13.778;2022-10-16T05:03:34;12.90;;;7.67;;
18875;SDS011;9570;50.854;13.778;2022-10-16T05:05:59;16.57;;;10.97;;
18875;SDS011;9570;50.854;13.778;2022-10-16T05:08:25;10.27;;;9.00;;
18875;SDS011;9570;50.854;13.778;2022-10-16T05:10:50;14.30;;;7.53;;
18875;SDS011;9570;50.854;13.778;2022-10-16T05:13:16;10.80;;;8.23;;
18875;SDS011;9570;50.854;13.778;2022-10-16T05:15:41;12.07;;;8.17;;
18875;SDS011;9570;50.854;13.778;2022-10-16T05:18:08;11.07;;;8.60;;
18875;SDS011;9570;50.854;13.778;2022-10-16T05:20:34;10.40;;;7.80;;
18875;SDS011;9570;50.854;13.778;2022-10-16T05:22:59;9.50;;;7.13;;
18875;SDS011;9570;50.854;13.778;2022-10-16T05:25:25;9.70;;;8.00;;
18875;SDS011;9570;50.854;13.778;2022-10-16T05:27:51;16.87;;;10.50;;
18875;SDS011;9570;50.854;13.778;2022-10-16T05:30:16;17.97;;;11.67;;
18875;SDS011;9570;50.854;13.778;2022-10-16T05:32:46;14.00;;;9.67;;
18875;SDS011;9570;50.854;13.778;2022-10-16T05:35:13;10.27;;;9.17;;
18875;SDS011;9570;50.854;13.778;2022-10-16T05:37:38;10.87;;;8.27;;
18875;SDS011;9570;50.854;13.778;2022-10-16T05:40:04;12.63;;;7.80;;
18875;SDS011;9570;50.854;13.778;2022-10-16T05:42:30;18.20;;;12.27;;
18875;SDS011;9570;50.854;13.778;2022-10-16T05:44:56;15.67;;;13.07;;
18875;SDS011;9570;50.854;13.778;2022-10-16T05:47:21;18.00;;;14.70;;
18875;SDS011;9570;50.854;13.778;2022-10-16T05:49:47;18.87;;;13.20;;
18875;SDS011;9570;50.854;13.778;2022-10-16T05:52:12;17.27;;;13.77;;
18875;SDS011;9570;50.854;13.778;2022-10-16T05:54:38;19.00;;;13.13;;
18875;SDS011;9570;50.854;13.778;2022-10-16T05:57:03;16.27;;;12.80;;
18875;SDS011;9570;50.854;13.778;2022-10-16T05:59:30;13.90;;;11.73;;
18875;SDS011;9570;50.854;13.778;2022-10-16T06:01:56;15.63;;;11.93;;
18875;SDS011;9570;50.854;13.778;2022-10-16T06:04:22;17.57;;;11.63;;
18875;SDS011;9570;50.854;13.778;2022-10-16T06:06:47;13.33;;;10.90;;
18875;SDS011;9570;50.854;13.778;2022-10-16T06:09:13;12.47;;;10.80;;
18875;SDS011;9570;50.854;13.778;2022-10-16T06:11:38;11.83;;;9.97;;
18875;SDS011;9570;50.854;13.778;2022-10-16T06:14:04;11.97;;;9.37;;
18875;SDS011;9570;50.854;13.778;2022-10-16T06:16:32;12.17;;;10.40;;
18875;SDS011;9570;50.854;13.778;2022-10-16T06:18:58;15.07;;;9.80;;
18875;SDS011;9570;50.854;13.778;2022-10-16T06:21:25;13.60;;;9.53;;
18875;SDS011;9570;50.854;13.778;2022-10-16T06:23:51;10.90;;;9.50;;
18875;SDS011;9570;50.854;13.778;2022-10-16T06:26:19;14.07;;;9.83;;
18875;SDS011;9570;50.854;13.778;2022-10-16T06:28:46;11.10;;;8.33;;
18875;SDS011;9570;50.854;13.778;2022-10-16T06:31:12;12.00;;;9.03;;
18875;SDS011;9570;50.854;13.778;2022-10-16T06:33:38;10.07;;;9.07;;
18875;SDS011;9570;50.854;13.778;2022-10-16T06:36:05;12.27;;;8.80;;
18875;SDS011;9570;50.854;13.778;2022-10-16T06:38:33;12.47;;;9.33;;
18875;SDS011;9570;50.854;13.778;2022-10-16T06:41:00;12.00;;;8.30;;
18875;SDS011;9570;50.854;13.778;2022-10-16T06:43:26;11.33;;;9.70;;
18875;SDS011;9570;50.854;13.778;2022-10-16T06:45:55;16.50;;;10.23;;
18875;SDS011;9570;50.854;13.778;2022-10-16T06:48:21;9.73;;;8.83;;
18875;SDS011;9570;50.854;13.778;2022-10-16T06:51:01;10.67;;;9.67;;
18875;SDS011;9570;50.854;13.778;2022-10-16T06:53:41;13.83;;;9.77;;
18875;SDS011;9570;50.854;13.778;2022-10-16T06:56:12;11.77;;;9.87;;
18875;SDS011;9570;50.854;13.778;2022-10-16T06:58:51;16.50;;;11.43;;
18875;SDS011;9570;50.854;13.778;2022-10-16T07:01:18;17.23;;;15.20;;
18875;SDS011;9570;50.854;13.778;2022-10-16T07:03:46;15.67;;;14.07;;
18875;SDS011;9570;50.854;13.778;2022-10-16T07:06:13;18.00;;;14.47;;
18875;SDS011;9570;50.854;13.778;2022-10-16T07:08:41;14.27;;;12.77;;
18875;SDS011;9570;50.854;13.778;2022-10-16T07:11:09;14.33;;;12.93;;
18875;SDS011;9570;50.854;13.778;2022-10-16T07:13:37;13.73;;;12.30;;
18875;SDS011;9570;50.854;13.778;2022-10-16T07:16:05;13.67;;;12.27;;
18875;SDS011;9570;50.854;13.778;2022-10-16T07:18:31;14.57;;;12.57;;
18875;SDS011;9570;50.854;13.778;2022-10-16T07:21:02;12.90;;;11.60;;
18875;SDS011;9570;50.854;13.778;2022-10-16T07:23:29;14.17;;;12.63;;
18875;SDS011;9570;50.854;13.778;2022-10-16T07:25:54;13.40;;;12.10;;
18875;SDS011;9570;50.854;13.778;2022-10-16T07:28:20;10.03;;;9.07;;
18875;SDS011;9570;50.854;13.778;2022-10-16T07:30:46;10.87;;;9.77;;
18875;SDS011;9570;50.854;13.778;2022-10-16T07:33:12;11.57;;;10.47;;
18875;SDS011;9570;50.854;13.778;2022-10-16T07:35:38;10.40;;;9.40;;
18875;SDS011;9570;50.854;13.778;2022-10-16T07:38:16;13.13;;;9.63;;
18875;SDS011;9570;50.854;13.778;2022-10-16T07:40:41;11.20;;;10.10;;
18875;SDS011;9570;50.854;13.778;2022-10-16T07:43:07;9.13;;;7.97;;
18875;SDS011;9570;50.854;13.778;2022-10-16T07:45:32;10.50;;;7.40;;
18875;SDS011;9570;50.854;13.778;2022-10-16T07:47:58;7.90;;;7.20;;
18875;SDS011;9570;50.854;13.778;2022-10-16T07:50:23;7.53;;;6.93;;
18875;SDS011;9570;50.854;13.778;2022-10-16T07:52:49;7.50;;;6.70;;
18875;SDS011;9570;50.854;13.778;2022-10-16T07:55:14;5.43;;;4.93;;
18875;SDS011;9570;50.854;13.778;2022-10-16T07:57:40;6.07;;;5.57;;
18875;SDS011;9570;50.854;13.778;2022-10-16T08:00:05;6.43;;;5.80;;
18875;SDS011;9570;50.854;13.778;2022-10-16T08:02:31;9.70;;;8.80;;
18875;SDS011;9570;50.854;13.778;2022-10-16T08:04:57;8.20;;;6.57;;
18875;SDS011;9570;50.854;13.778;2022-10-16T08:07:22;5.10;;;4.40;;
18875;SDS011;9570;50.854;13.778;2022-10-16T08:09:51;4.87;;;4.47;;
18875;SDS011;9570;50.854;13.778;2022-10-16T08:12:17;4.47;;;3.80;;
18875;SDS011;9570;50.854;13.778;2022-10-16T08:14:43;4.10;;;3.70;;
18875;SDS011;9570;50.854;13.778;2022-10-16T08:17:08;4.43;;;3.53;;
18875;SDS011;9570;50.854;13.778;2022-10-16T08:19:33;3.80;;;3.50;;
18875;SDS011;9570;50.854;13.778;2022-10-16T08:22:00;4.50;;;3.57;;
18875;SDS011;9570;50.854;13.778;2022-10-16T08:24:26;4.10;;;3.80;;
18875;SDS011;9570;50.854;13.778;2022-10-16T08:26:53;3.70;;;3.40;;
18875;SDS011;9570;50.854;13.778;2022-10-16T08:29:19;4.30;;;4.00;;
18875;SDS011;9570;50.854;13.778;2022-10-16T08:31:44;4.23;;;3.83;;
18875;SDS011;9570;50.854;13.778;2022-10-16T08:34:10;4.80;;;3.10;;
18875;SDS011;9570;50.854;13.778;2022-10-16T08:36:36;3.13;;;2.93;;
18875;SDS011;9570;50.854;13.778;2022-10-16T08:39:01;3.03;;;2.83;;
18875;SDS011;9570;50.854;13.778;2022-10-16T08:41:33;2.50;;;2.30;;
18875;SDS011;9570;50.854;13.778;2022-10-16T08:44:27;3.13;;;2.53;;
18875;SDS011;9570;50.854;13.778;2022-10-16T08:47:13;3.20;;;2.40;;
18875;SDS011;9570;50.854;13.778;2022-10-16T08:50:12;2.57;;;2.37;;
18875;SDS011;9570;50.854;13.778;2022-10-16T08:52:43;2.20;;;2.00;;
18875;SDS011;9570;50.854;13.778;2022-10-16T08:55:16;2.03;;;1.93;;
18875;SDS011;9570;50.854;13.778;2022-10-16T08:57:54;3.30;;;1.90;;
18875;SDS011;9570;50.854;13.778;2022-10-16T09:00:20;1.80;;;1.70;;
18875;SDS011;9570;50.854;13.778;2022-10-16T09:11:06;3.80;;;1.60;;
18875;SDS011;9570;50.854;13.778;2022-10-16T09:13:36;1.80;;;1.70;;
18875;SDS011;9570;50.854;13.778;2022-10-16T09:16:16;1.73;;;1.63;;
18875;SDS011;9570;50.854;13.778;2022-10-16T09:19:01;2.27;;;1.50;;
18875;SDS011;9570;50.854;13.778;2022-10-16T09:21:38;1.90;;;1.80;;
18875;SDS011;9570;50.854;13.778;2022-10-16T09:26:36;1.90;;;1.80;;
18875;SDS011;9570;50.854;13.778;2022-10-16T09:29:02;2.73;;;1.90;;
18875;SDS011;9570;50.854;13.778;2022-10-16T09:31:28;2.17;;;1.97;;
18875;SDS011;9570;50.854;13.778;2022-10-16T09:33:55;2.00;;;1.90;;
18875;SDS011;9570;50.854;13.778;2022-10-16T09:36:30;2.73;;;2.10;;
18875;SDS011;9570;50.854;13.778;2022-10-16T09:39:08;2.83;;;2.20;;
18875;SDS011;9570;50.854;13.778;2022-10-16T09:41:35;2.40;;;2.10;;
18875;SDS011;9570;50.854;13.778;2022-10-16T09:44:04;2.13;;;2.00;;
18875;SDS011;9570;50.854;13.778;2022-10-16T09:46:41;2.00;;;1.90;;
18875;SDS011;9570;50.854;13.778;2022-10-16T09:49:19;2.60;;;2.40;;
18875;SDS011;9570;50.854;13.778;2022-10-16T09:51:47;3.57;;;2.13;;
18875;SDS011;9570;50.854;13.778;2022-10-16T09:56:40;2.30;;;2.10;;
18875;SDS011;9570;50.854;13.778;2022-10-16T09:59:14;2.30;;;1.93;;
18875;SDS011;9570;50.854;13.778;2022-10-16T10:02:03;2.47;;;1.80;;
18875;SDS011;9570;50.854;13.778;2022-10-16T10:04:37;4.37;;;2.83;;
18875;SDS011;9570;50.854;13.778;2022-10-16T10:07:05;2.50;;;2.30;;
18875;SDS011;9570;50.854;13.778;2022-10-16T10:09:42;3.00;;;2.80;;
18875;SDS011;9570;50.854;13.778;2022-10-16T10:12:19;3.23;;;2.63;;
18875;SDS011;9570;50.854;13.778;2022-10-16T10:14:48;3.07;;;2.73;;
18875;SDS011;9570;50.854;13.778;2022-10-16T10:17:19;3.10;;;2.90;;
18875;SDS011;9570;50.854;13.778;2022-10-16T10:19:51;3.63;;;2.87;;
18875;SDS011;9570;50.854;13.778;2022-10-16T10:22:17;6.33;;;3.00;;
18875;SDS011;9570;50.854;13.778;2022-10-16T10:24:54;2.70;;;2.50;;
18875;SDS011;9570;50.854;13.778;2022-10-16T10:30:55;3.50;;;2.50;;
18875;SDS011;9570;50.854;13.778;2022-10-16T10:33:37;2.47;;;2.27;;
18875;SDS011;9570;50.854;13.778;2022-10-16T10:36:39;4.27;;;2.47;;
18875;SDS011;9570;50.854;13.778;2022-10-16T10:39:12;5.10;;;2.50;;
18875;SDS011;9570;50.854;13.778;2022-10-16T10:53:21;2.37;;;2.17;;
18875;SDS011;9570;50.854;13.778;2022-10-16T10:56:02;2.10;;;2.00;;
18875;SDS011;9570;50.854;13.778;2022-10-16T11:01:13;2.40;;;1.80;;
18875;SDS011;9570;50.854;13.778;2022-10-16T11:04:01;2.17;;;2.00;;
18875;SDS011;9570;50.854;13.778;2022-10-16T11:15:00;1.70;;;1.60;;
18875;SDS011;9570;50.854;13.778;2022-10-16T11:17:38;2.07;;;1.70;;
18875;SDS011;9570;50.854;13.778;2022-10-16T11:22:42;2.50;;;1.60;;
18875;SDS011;9570;50.854;13.778;2022-10-16T11:25:19;1.70;;;1.60;;
18875;SDS011;9570;50.854;13.778;2022-10-16T11:27:59;2.80;;;1.70;;
18875;SDS011;9570;50.854;13.778;2022-10-16T11:30:29;3.50;;;1.93;;
18875;SDS011;9570;50.854;13.778;2022-10-16T11:38:11;1.60;;;1.40;;
18875;SDS011;9570;50.854;13.778;2022-10-16T11:46:32;1.43;;;0.80;;
18875;SDS011;9570;50.854;13.778;2022-10-16T11:49:03;1.50;;;0.80;;
18875;SDS011;9570;50.854;13.778;2022-10-16T11:54:53;0.60;;;0.60;;
18875;SDS011;9570;50.854;13.778;2022-10-16T11:57:27;0.70;;;0.70;;
18875;SDS011;9570;50.854;13.778;2022-10-16T12:00:00;0.77;;;0.70;;
18875;SDS011;9570;50.854;13.778;2022-10-16T12:02:32;2.00;;;1.40;;
18875;SDS011;9570;50.854;13.778;2022-10-16T12:07:52;1.67;;;1.33;;
18875;SDS011;9570;50.854;13.778;2022-10-16T12:10:30;1.60;;;1.37;;
18875;SDS011;9570;50.854;13.778;2022-10-16T12:13:03;3.77;;;1.63;;
18875;SDS011;9570;50.854;13.778;2022-10-16T12:15:30;1.43;;;1.33;;
18875;SDS011;9570;50.854;13.778;2022-10-16T12:17:58;1.53;;;1.43;;
18875;SDS011;9570;50.854;13.778;2022-10-16T12:20:31;1.60;;;1.30;;
18875;SDS011;9570;50.854;13.778;2022-10-16T12:23:01;1.97;;;1.50;;
18875;SDS011;9570;50.854;13.778;2022-10-16T12:25:30;2.40;;;1.33;;
18875;SDS011;9570;50.854;13.778;2022-10-16T12:28:02;2.73;;;1.40;;
18875;SDS011;9570;50.854;13.778;2022-10-16T12:30:29;2.23;;;1.27;;
18875;SDS011;9570;50.854;13.778;2022-10-16T12:32:57;2.53;;;1.37;;
18875;SDS011;9570;50.854;13.778;2022-10-16T12:35:43;2.17;;;1.20;;
18875;SDS011;9570;50.854;13.778;2022-10-16T12:38:26;2.07;;;1.10;;
18875;SDS011;9570;50.854;13.778;2022-10-16T12:41:03;3.30;;;1.20;;
18875;SDS011;9570;50.854;13.778;2022-10-16T12:43:40;1.10;;;0.80;;
18875;SDS011;9570;50.854;13.778;2022-10-16T12:48:33;1.30;;;0.80;;
18875;SDS011;9570;50.854;13.778;2022-10-16T12:54:49;2.77;;;1.00;;
18875;SDS011;9570;50.854;13.778;2022-10-16T13:21:42;1.17;;;1.07;;
18875;SDS011;9570;50.854;13.778;2022-10-16T13:30:23;2.13;;;1.40;;
18875;SDS011;9570;50.854;13.778;2022-10-16T13:32:54;2.93;;;1.23;;
18875;SDS011;9570;50.854;13.778;2022-10-16T13:35:27;1.40;;;1.30;;
18875;SDS011;9570;50.854;13.778;2022-10-16T13:40:56;4.33;;;2.10;;
18875;SDS011;9570;50.854;13.778;2022-10-16T13:43:43;1.97;;;1.53;;
18875;SDS011;9570;50.854;13.778;2022-10-16T13:46:12;1.40;;;1.30;;
18875;SDS011;9570;50.854;13.778;2022-10-16T13:48:38;2.10;;;1.40;;
18875;SDS011;9570;50.854;13.778;2022-10-16T13:51:04;2.10;;;1.40;;
18875;SDS011;9570;50.854;13.778;2022-10-16T13:53:31;4.63;;;1.60;;
18875;SDS011;9570;50.854;13.778;2022-10-16T13:55:59;2.50;;;1.60;;
18875;SDS011;9570;50.854;13.778;2022-10-16T13:58:25;4.50;;;1.30;;
18875;SDS011;9570;50.854;13.778;2022-10-16T14:00:55;1.30;;;1.20;;
18875;SDS011;9570;50.854;13.778;2022-10-16T14:03:30;2.93;;;1.27;;
18875;SDS011;9570;50.854;13.778;2022-10-16T14:06:03;2.03;;;1.30;;
18875;SDS011;9570;50.854;13.778;2022-10-16T14:08:36;2.60;;;1.40;;
18875;SDS011;9570;50.854;13.778;2022-10-16T14:11:06;1.40;;;1.10;;
18875;SDS011;9570;50.854;13.778;2022-10-16T14:13:39;1.67;;;1.00;;
18875;SDS011;9570;50.854;13.778;2022-10-16T14:16:09;2.80;;;1.30;;
18875;SDS011;9570;50.854;13.778;2022-10-16T14:18:41;4.53;;;1.40;;
18875;SDS011;9570;50.854;13.778;2022-10-16T14:21:21;1.70;;;1.30;;
18875;SDS011;9570;50.854;13.778;2022-10-16T14:23:46;2.10;;;1.07;;
18875;SDS011;9570;50.854;13.778;2022-10-16T14:26:13;1.70;;;1.00;;
18875;SDS011;9570;50.854;13.778;2022-10-16T14:28:41;3.20;;;1.30;;
18875;SDS011;9570;50.854;13.778;2022-10-16T14:31:22;1.97;;;1.03;;
18875;SDS011;9570;50.854;13.778;2022-10-16T14:33:56;1.70;;;1.03;;
18875;SDS011;9570;50.854;13.778;2022-10-16T14:36:22;1.63;;;1.20;;
18875;SDS011;9570;50.854;13.778;2022-10-16T14:41:32;1.67;;;1.03;;
18875;SDS011;9570;50.854;13.778;2022-10-16T14:44:06;1.50;;;1.10;;
18875;SDS011;9570;50.854;13.778;2022-10-16T14:46:36;2.47;;;1.20;;
18875;SDS011;9570;50.854;13.778;2022-10-16T14:49:05;14.30;;;1.57;;
18875;SDS011;9570;50.854;13.778;2022-10-16T14:51:37;1.77;;;1.23;;
18875;SDS011;9570;50.854;13.778;2022-10-16T14:54:03;1.67;;;1.00;;
18875;SDS011;9570;50.854;13.778;2022-10-16T14:56:51;10.80;;;1.37;;
18875;SDS011;9570;50.854;13.778;2022-10-16T14:59:25;2.80;;;1.40;;
18875;SDS011;9570;50.854;13.778;2022-10-16T15:04:52;2.53;;;1.20;;
18875;SDS011;9570;50.854;13.778;2022-10-16T15:07:17;2.07;;;1.00;;
18875;SDS011;9570;50.854;13.778;2022-10-16T15:09:43;1.40;;;1.10;;
18875;SDS011;9570;50.854;13.778;2022-10-16T15:12:08;1.37;;;1.10;;
18875;SDS011;9570;50.854;13.778;2022-10-16T15:14:34;1.87;;;1.20;;
18875;SDS011;9570;50.854;13.778;2022-10-16T15:16:59;2.60;;;1.23;;
18875;SDS011;9570;50.854;13.778;2022-10-16T15:19:25;1.70;;;1.20;;
18875;SDS011;9570;50.854;13.778;2022-10-16T15:21:51;4.77;;;1.33;;
18875;SDS011;9570;50.854;13.778;2022-10-16T15:24:17;4.90;;;1.30;;
18875;SDS011;9570;50.854;13.778;2022-10-16T15:26:43;2.70;;;1.23;;
18875;SDS011;9570;50.854;13.778;2022-10-16T15:29:11;3.73;;;1.50;;
18875;SDS011;9570;50.854;13.778;2022-10-16T15:31:37;3.90;;;1.60;;
18875;SDS011;9570;50.854;13.778;2022-10-16T15:34:02;4.00;;;1.20;;
18875;SDS011;9570;50.854;13.778;2022-10-16T15:36:32;4.30;;;1.37;;
18875;SDS011;9570;50.854;13.778;2022-10-16T15:39:01;8.63;;;1.80;;
18875;SDS011;9570;50.854;13.778;2022-10-16T15:41:30;13.63;;;1.70;;
18875;SDS011;9570;50.854;13.778;2022-10-16T15:43:55;11.20;;;1.90;;
18875;SDS011;9570;50.854;13.778;2022-10-16T15:46:22;9.03;;;1.60;;
18875;SDS011;9570;50.854;13.778;2022-10-16T15:48:49;11.87;;;1.57;;
18875;SDS011;9570;50.854;13.778;2022-10-16T15:51:15;12.47;;;1.93;;
18875;SDS011;9570;50.854;13.778;2022-10-16T15:53:41;8.67;;;1.80;;
18875;SDS011;9570;50.854;13.778;2022-10-16T15:56:08;11.60;;;1.53;;
18875;SDS011;9570;50.854;13.778;2022-10-16T15:58:34;8.60;;;1.53;;
18875;SDS011;9570;50.854;13.778;2022-10-16T16:01:00;9.13;;;2.00;;
18875;SDS011;9570;50.854;13.778;2022-10-16T16:03:26;12.90;;;1.80;;
18875;SDS011;9570;50.854;13.778;2022-10-16T16:05:53;7.30;;;2.00;;
18875;SDS011;9570;50.854;13.778;2022-10-16T16:08:18;6.83;;;1.90;;
18875;SDS011;9570;50.854;13.778;2022-10-16T16:10:44;9.33;;;1.60;;
18875;SDS011;9570;50.854;13.778;2022-10-16T16:13:10;16.77;;;2.00;;
18875;SDS011;9570;50.854;13.778;2022-10-16T16:15:38;8.67;;;1.70;;
18875;SDS011;9570;50.854;13.778;2022-10-16T16:18:04;5.00;;;1.50;;
18875;SDS011;9570;50.854;13.778;2022-10-16T16:20:30;11.87;;;2.20;;
18875;SDS011;9570;50.854;13.778;2022-10-16T16:22:56;7.10;;;2.00;;
18875;SDS011;9570;50.854;13.778;2022-10-16T16:25:22;10.93;;;1.67;;
18875;SDS011;9570;50.854;13.778;2022-10-16T16:27:47;11.47;;;1.60;;
18875;SDS011;9570;50.854;13.778;2022-10-16T16:30:13;10.93;;;1.90;;
18875;SDS011;9570;50.854;13.778;2022-10-16T16:32:38;7.37;;;1.47;;
18875;SDS011;9570;50.854;13.778;2022-10-16T16:35:04;6.80;;;1.73;;
18875;SDS011;9570;50.854;13.778;2022-10-16T16:37:30;5.90;;;1.73;;
18875;SDS011;9570;50.854;13.778;2022-10-16T16:39:56;3.93;;;1.80;;
18875;SDS011;9570;50.854;13.778;2022-10-16T16:42:23;10.97;;;2.10;;
18875;SDS011;9570;50.854;13.778;2022-10-16T16:44:50;12.30;;;2.33;;